Aérodrome :
LOGIN :

S'inscrire | Disclaimer

   EN    FR    IT 

 










Légende :    VFR   VFR Marginal   IFR   IFR Intensif   IFR Très Intensif
Visi : 
Plafond : 
>= 8 km
>= 3000ft
5 à 8 km
1000 à 3000 ft
1500m à 5 km
500 à 1000 ft
800 à 1500m
200 à 500 ft
< 800m
< 200 ft
Symboles :   Orages  Brouillard  Fortes neiges  Fortes précipitations  Vent > 20 kt
SIGMETs :   Divers  Orages  Givrage  Turbulence  Onde Orograph.  Cendres Volcan.







- Altitude de l'aérodrome : 12 ft
- Code IATA : BCN


LEBL - Barcelone

DERNIER METAR :
  • 141500Z 31005KT 260V350 9999 FEW030 15/08 Q1012 NOSIG

METARs EXPIRÉS :
  • 141430Z 31005KT 260V360 9999 FEW030 15/08 Q1013 NOSIG
  • 141400Z 35003KT 290V100 9999 FEW030 14/08 Q1013 NOSIG
  • 141330Z VRB02KT 9999 FEW030 14/07 Q1013 NOSIG
  • 141300Z 33003KT 250V050 9999 FEW030 14/07 Q1014 NOSIG
  • 141230Z 33005KT 280V020 9999 FEW030 14/07 Q1015 NOSIG
  • 141200Z 33007G19KT 290V010 9999 FEW030 13/06 Q1015 NOSIG

TAF TAF LEBL
Valide du 14 à 12h jusqu'au 15 à 12h UTC


141100Z 1412/1512 25012KT 9999 FEW030 TX17/1412Z TN07/1507Z
PROB40
TEMPO 1412/1420 25015G25KT
BECMG 1510/1512 30012KT
Pas de NOTAMs connus pour ce terrain.



MET'MAP, la Météo Aéronautique d'un coup d'oeil ! - Copyright ORBIFLY Décembre 2007 - Disclaimer

ORBIFLY MET'MAP TEAM :

Programmation & Développement : Alexandra Zaïnal
Conception & Développement : Baudouin d'Aumeries
Co-Programmation & Développement : Marc-Olivier Méhu
Soutien technique & logistique : Manuel Goepfert

Contact : metmap@orbifly.com




SOURCES & CREDITS :

   NOAA